• Join FlightAware (Why Join?)
  • Login
  • US Flag 
10:02PM EST


 

Airport Tracker/Info


-or-


 

Live Flight TrackerFlight Track Log ✈ RPA3446 ✈ 29-Jun-2014 ✈ KPHL - KBGR

Flight Track Log - Related Links

Times and Time Zones

All times are in EDT time to prevent confusion due to time zone crossing. See the RPA3446 flight status page for this flight to view local times or setup timezone preferences in your user account.

Time Position Orientation Groundspeed Altitude Reporting Facility
EDT Latitude Longitude Course Direction KTS MPH feet Rate Location/Type
09:56PM 39.8667 -75.2667 90° East 145 167 800  Level Philadelphia TRACON
09:56PM 39.8333 -75.3000 218° Southwest 168 193 1,700 1,620 Climbing Philadelphia TRACON
09:57PM 39.8000 -75.3500 229° Southwest 246 283 3,500 2,520 Climbing Philadelphia TRACON
09:58PM 39.7333 -75.3667 191° South 274 315 6,900 3,060 Climbing Philadelphia TRACON
09:59PM 39.8085 -74.8257 105° East  Level FlightAware Approximate
09:59PM 39.7000 -75.2833 117° Southeast 303 349 9,400  Level Philadelphia TRACON
10:00PM 39.7856 -74.6886 75° East  Level FlightAware Approximate
10:01PM 39.8000 -74.5494 90° East  Level FlightAware Approximate
10:02PM 39.7472 -75.0178 77° East 348 400 12,000  Level New York Center
10:03PM 39.7664 -74.8894 79° East 338 389 12,000 1,020 Level New York Center
10:04PM 39.7872 -74.7692 77° East 333 383 14,100 2,220 Climbing New York Center
10:05PM 39.8000 -74.6400 83° East 339 390 16,400 2,100 Climbing New York Center
10:06PM 39.8372 -74.5206 68° East 344 396 18,300 2,040 Climbing New York Center
10:07PM 39.8950 -74.4072 56° Northeast 351 404 20,500 1,500 Climbing New York Center
10:09PM 40.0075 -74.1844 57° Northeast 374 430 23,000 780 Climbing Boston Center
10:10PM 40.0664 -74.0689 56° Northeast 381 438 23,000 120 Level Boston Center
10:11PM 40.1231 -73.9525 57° Northeast 381 438 23,300 900 Climbing Boston Center
10:12PM 40.1819 -73.8344 57° Northeast 383 441 24,900 1,620 Climbing Boston Center
10:13PM 40.2475 -73.7039 57° Northeast 399 459 26,600 1,380 Climbing Boston Center
10:14PM 40.3039 -73.5889 57° Northeast 402 463 27,800 1,140 Climbing Boston Center
10:15PM 40.3800 -73.4767 48° Northeast 411 473 28,900 540 Climbing Boston Center
10:16PM 40.4769 -73.3869 35° Northeast 420 483 29,000  Climbing Boston Center
10:17PM 40.5786 -73.2922 35° Northeast 441 507 29,000  Level Boston Center
10:18PM 40.6789 -73.1978 36° Northeast 442 509 29,000  Level Boston Center
10:19PM 40.7786 -73.1028 36° Northeast 442 509 29,000  Level Boston Center
10:20PM 40.8775 -73.0078 36° Northeast 442 509 29,000  Level Boston Center
10:21PM 40.9956 -72.8942 36° Northeast 441 507 29,000  Level Boston Center
10:22PM 41.0928 -72.7994 36° Northeast 440 506 29,000  Level Boston Center
10:23PM 41.1900 -72.7047 36° Northeast 437 503 29,000  Level Boston Center
10:24PM 41.2822 -72.6139 36° Northeast 436 502 29,000  Level Boston Center
10:25PM 41.3806 -72.5192 36° Northeast 435 501 29,000  Level Boston Center
10:26PM 41.4775 -72.4233 37° Northeast 435 501 29,000  Level Boston Center
10:27PM 41.5767 -72.3264 36° Northeast 435 501 29,000  Level Boston Center
10:28PM 41.6736 -72.2308 36° Northeast 435 501 29,000  Level Boston Center
10:29PM 41.7689 -72.1356 37° Northeast 434 499 29,000  Level Boston Center
10:30PM 41.8650 -72.0403 36° Northeast 434 499 29,000  Level Boston Center
10:31PM 41.9606 -71.9433 37° Northeast 434 499 29,000  Level Boston Center
10:32PM 42.0561 -71.8478 37° Northeast 434 499 29,000  Level Boston Center
10:33PM 42.1708 -71.7333 36° Northeast 433 498 29,000  Level Boston Center
10:34PM 42.2644 -71.6375 37° Northeast 432 497 29,000  Level Boston Center
10:35PM 42.3586 -71.5411 37° Northeast 427 491 29,000  Level Boston Center
10:36PM 42.4578 -71.4400 37° Northeast 427 491 29,000  Level Boston Center
10:37PM 42.5531 -71.3425 37° Northeast 428 493 29,000  Level Boston Center
10:38PM 42.6486 -71.2442 37° Northeast 428 493 29,000  Level Boston Center
10:39PM 42.7436 -71.1478 37° Northeast 427 491 29,000  Level Boston Center
10:40PM 42.8372 -71.0489 38° Northeast 427 491 29,000  Level Boston Center
10:41PM 42.9325 -70.9514 37° Northeast 427 491 29,000  Level Boston Center
10:42PM 43.0261 -70.8525 38° Northeast 427 491 29,000  Level Boston Center
10:43PM 43.1206 -70.7525 38° Northeast 427 491 29,000  Level Boston Center
10:44PM 43.2153 -70.6528 37° Northeast 427 491 29,000  Level Boston Center
10:45PM 43.3094 -70.5558 37° Northeast 427 491 29,000  Level Boston Center
10:46PM 43.4086 -70.4494 38° Northeast 428 493 29,000  Level Boston Center
10:47PM 43.5031 -70.3461 38° Northeast 429 494 29,000 -360 Level Boston Center
10:48PM 43.5967 -70.2461 38° Northeast 429 494 28,300 -960 Descending Boston Center
10:49PM 43.6822 -70.1547 38° Northeast 395 455 27,100 -1,200 Descending Boston Center
10:50PM 43.7681 -70.0625 38° Northeast 391 450 25,900 -1,200 Descending Boston Center
10:51PM 43.8525 -69.9706 38° Northeast 390 449 24,700 -1,320 Descending Boston Center
10:52PM 43.9339 -69.8825 38° Northeast 375 432 23,300 -1,500 Descending Boston Center
10:53PM 44.0150 -69.7964 37° Northeast 368 423 21,800 -1,500 Descending Boston Center
10:54PM 44.0919 -69.7097 39° Northeast 358 412 20,200 -1,560 Descending Boston Center
10:55PM 44.1692 -69.6261 38° Northeast 353 406 18,700 -1,500 Descending Boston Center
10:56PM 44.2406 -69.5369 42° Northeast 348 400 17,200 -1,740 Descending Boston Center
10:57PM 44.2994 -69.4350 51° Northeast 340 391 15,200 -1,980 Descending Boston Center
10:58PM 44.3578 -69.3350 51° Northeast 336 387 13,200 -2,040 Descending Boston Center
10:59PM 44.4244 -69.2206 51° Northeast 317 365 11,200 -1,860 Descending Boston Center
11:00PM 44.4767 -69.1306 51° Northeast 303 349 9,500 -1,860 Descending Boston Center
11:01PM 44.5272 -69.0444 51° Northeast 289 333 7,500 -1,920 Descending Boston Center
11:02PM 44.5767 -68.9583 51° Northeast 287 330 5,700 -1,740 Descending Boston Center
11:03PM 44.6247 -68.8744 51° Northeast 282 325 4,100 -1,260 Descending Boston Center
11:04PM 44.6664 -68.8031 51° Northeast 236 272 3,200 -900 Descending Boston Center
11:05PM 44.7017 -68.7397 52° Northeast 208 239 2,300 -840 Descending Boston Center
11:07PM 44.7442 -68.7369 North 176 203 1,600 -720 Descending Boston Center
11:08PM 44.7681 -68.7725 313° West 133 153 900 -660 Descending Boston Center
11:09PM 44.7942 -68.8100 314° West 132 152 300 -660 Descending Boston Center